Time;durP1;ratioP1;P1;durP2;ratioP2;P2;SDS_P1;SDS_P2;PMS_P1;PMS_P2;Temp;Humidity;BMP_temperature;BMP_pressure;BME280_temperature;BME280_humidity;BME280_pressure;Samples;Min_cycle;Max_cycle;Signal;HPM_P1;HPM_P2
2022/10/14 00:00:12;;;;;;;11.68;5.78;;;;;;;16.70;68.95;101253.06;4955325;28;20035;-77
2022/10/14 00:02:38;;;;;;;14.15;5.28;;;;;;;16.59;69.21;101250.56;4955192;28;20082;-77
2022/10/14 00:05:03;;;;;;;12.82;4.95;;;;;;;16.65;69.19;101252.69;4944399;29;20039;-78
2022/10/14 00:07:29;;;;;;;9.43;4.20;;;;;;;16.66;69.37;101246.25;4967478;29;20054;-77
2022/10/14 00:09:54;;;;;;;8.65;4.35;;;;;;;16.76;69.14;101252.47;4967569;28;20066;-78
2022/10/14 00:12:20;;;;;;;8.23;3.60;;;;;;;16.62;69.25;101231.25;4956280;28;20114;-77
2022/10/14 00:14:45;;;;;;;48.35;7.25;;;;;;;16.63;69.42;101243.84;4954355;28;20034;-79
2022/10/14 00:17:10;;;;;;;14.13;3.75;;;;;;;16.56;69.46;101238.13;4953999;28;20024;-77
2022/10/14 00:19:36;;;;;;;19.20;4.43;;;;;;;16.45;69.75;101215.72;4954161;28;20028;-77
2022/10/14 00:22:02;;;;;;;3.95;3.35;;;;;;;16.60;69.97;101241.41;4954158;28;20026;-76
2022/10/14 00:24:27;;;;;;;9.38;3.50;;;;;;;16.57;69.56;101236.28;4953860;28;20109;-79
2022/10/14 00:26:53;;;;;;;9.27;3.20;;;;;;;16.37;69.89;101202.84;4953838;28;20020;-76
2022/10/14 00:29:18;;;;;;;5.25;2.78;;;;;;;16.52;70.18;101219.53;4953658;28;20086;-75
2022/10/14 00:31:44;;;;;;;5.47;3.47;;;;;;;16.52;70.48;101227.66;4953677;28;20028;-77
2022/10/14 00:34:11;;;;;;;4.43;3.33;;;;;;;16.45;70.32;101210.28;4953644;29;20027;-76
2022/10/14 00:36:39;;;;;;;11.80;2.72;;;;;;;16.60;70.35;101225.13;4953935;28;20035;-77
2022/10/14 00:39:04;;;;;;;7.43;3.03;;;;;;;16.58;70.17;101216.25;4953724;28;20035;-77
2022/10/14 00:41:32;;;;;;;6.60;3.20;;;;;;;16.62;69.99;101220.38;4953683;28;20035;-77
2022/10/14 00:44:10;;;;;;;6.22;3.63;;;;;;;16.66;69.90;101216.38;4953461;28;20376;-75
2022/10/14 00:46:38;;;;;;;6.38;3.63;;;;;;;16.41;69.76;101177.13;4953626;28;20027;-77
2022/10/14 00:49:12;;;;;;;56.65;5.38;;;;;;;16.64;69.74;101211.06;4953596;28;20042;-76
2022/10/14 00:51:40;;;;;;;23.13;4.18;;;;;;;16.51;69.60;101179.81;4953656;28;20039;-76
2022/10/14 00:54:06;;;;;;;15.95;3.50;;;;;;;16.71;69.55;101204.03;4953499;28;20030;-77
2022/10/14 00:56:32;;;;;;;8.93;3.63;;;;;;;16.74;69.43;101211.91;4952016;28;20105;-76
2022/10/14 00:59:01;;;;;;;12.30;3.80;;;;;;;16.50;69.16;101164.50;4953609;28;20110;-76
2022/10/14 01:01:26;;;;;;;9.10;4.47;;;;;;;16.78;69.15;101201.59;4953596;28;20027;-77
2022/10/14 01:03:52;;;;;;;15.80;4.65;;;;;;;16.77;69.29;101205.28;4953397;28;20023;-77
2022/10/14 01:06:43;;;;;;;16.60;4.57;;;;;;;16.79;68.83;101200.56;4953519;28;20042;-77
2022/10/14 01:09:26;;;;;;;12.98;4.65;;;;;;;16.78;69.20;101207.03;4951199;29;20142;-77
2022/10/14 01:12:48;;;;;;;7.55;3.90;;;;;;;16.79;69.09;101206.84;4954376;28;20051;-77
2022/10/14 01:15:14;;;;;;;7.65;3.47;;;;;;;16.74;69.21;101208.31;4913239;29;20036;-76
2022/10/14 01:17:57;;;;;;;11.15;4.32;;;;;;;16.76;69.48;101200.84;4913011;29;20088;-75
2022/10/14 01:20:41;;;;;;;6.85;3.17;;;;;;;16.73;69.53;101204.75;4918755;29;20044;-78
2022/10/14 01:23:18;;;;;;;6.82;4.05;;;;;;;16.63;69.66;101203.09;4923066;29;20032;-77
2022/10/14 01:26:05;;;;;;;7.88;3.40;;;;;;;16.47;69.97;101198.25;4923464;29;20044;-77
2022/10/14 01:28:50;;;;;;;9.15;3.50;;;;;;;16.38;70.81;101192.88;4912494;29;20045;-75
2022/10/14 01:31:21;;;;;;;80.60;6.38;;;;;;;16.40;70.72;101190.84;4912321;29;20036;-77
2022/10/14 01:33:51;;;;;;;5.90;2.70;;;;;;;16.37;70.69;101189.28;4912426;29;20083;-76
2022/10/14 01:36:35;;;;;;;7.72;3.40;;;;;;;16.41;70.39;101188.00;4912403;29;20074;-75
2022/10/14 01:39:11;;;;;;;11.40;4.88;;;;;;;16.40;70.61;101199.84;4912308;29;20500;-79
2022/10/14 01:42:01;;;;;;;8.95;3.40;;;;;;;16.38;70.62;101182.00;4912232;29;20039;-78
2022/10/14 01:44:29;;;;;;;6.25;2.95;;;;;;;16.46;70.37;101184.81;4912576;29;20405;-78
2022/10/14 01:46:55;;;;;;;7.40;3.35;;;;;;;16.43;70.40;101169.69;4952863;29;20454;-78
2022/10/14 01:49:51;;;;;;;6.05;3.70;;;;;;;16.54;70.32;101182.22;4952388;28;20419;-78
2022/10/14 01:52:26;;;;;;;8.40;3.45;;;;;;;16.60;70.18;101184.38;4911874;29;20540;-77
2022/10/14 01:54:55;;;;;;;12.90;3.03;;;;;;;16.56;69.85;101175.66;4911920;29;20091;-76
2022/10/14 01:57:28;;;;;;;12.20;3.58;;;;;;;16.59;69.49;101171.78;4912056;29;20047;-78
2022/10/14 01:59:54;;;;;;;12.75;2.90;;;;;;;16.55;69.67;101167.66;4911649;29;20032;-79
2022/10/14 02:02:23;;;;;;;80.35;7.20;;;;;;;16.60;69.53;101193.38;4911944;29;20029;-77
2022/10/14 02:04:49;;;;;;;5.03;3.30;;;;;;;16.48;70.05;101182.81;4911530;29;20036;-78
2022/10/14 02:07:28;;;;;;;5.63;3.05;;;;;;;16.45;70.21;101188.56;4911356;29;20031;-77
2022/10/14 02:10:07;;;;;;;12.85;3.47;;;;;;;16.35;70.23;101177.72;4911571;29;20179;-77
2022/10/14 02:12:51;;;;;;;8.18;3.70;;;;;;;16.44;70.46;101186.84;4911432;29;20076;-76
2022/10/14 02:15:30;;;;;;;5.63;3.42;;;;;;;16.42;69.98;101188.84;4911670;29;20031;-77
2022/10/14 02:18:29;;;;;;;11.50;3.80;;;;;;;16.41;69.99;101188.00;4911465;29;20137;-78
2022/10/14 02:21:04;;;;;;;20.77;5.70;;;;;;;16.38;69.99;101184.72;4911602;29;20162;-76
2022/10/14 02:23:37;;;;;;;10.98;4.88;;;;;;;16.37;70.42;101181.13;4911374;29;20040;-78
2022/10/14 02:26:03;;;;;;;7.13;3.92;;;;;;;16.20;70.11;101155.66;4911330;29;20102;-76
2022/10/14 02:28:31;;;;;;;17.83;4.80;;;;;;;16.33;70.19;101186.00;4921322;29;20094;-76
2022/10/14 02:31:01;;;;;;;7.90;3.47;;;;;;;16.33;70.49;101183.28;4952604;28;20038;-78
2022/10/14 02:33:33;;;;;;;6.70;3.45;;;;;;;16.38;70.53;101179.28;4952362;28;20082;-78
2022/10/14 02:36:01;;;;;;;7.05;3.58;;;;;;;16.30;70.18;101164.59;4957495;28;20039;-78
2022/10/14 02:38:28;;;;;;;6.63;3.55;;;;;;;16.38;70.11;101165.72;4964390;28;20023;-78
2022/10/14 02:40:54;;;;;;;15.70;4.53;;;;;;;16.14;69.97;101134.53;4964912;28;20166;-80
2022/10/14 02:43:19;;;;;;;16.20;2.97;;;;;;;16.38;70.04;101176.56;4954770;28;20023;-76
2022/10/14 02:45:45;;;;;;;14.75;3.65;;;;;;;16.34;70.14;101165.16;4951616;28;20416;-75
2022/10/14 02:48:11;;;;;;;9.32;3.45;;;;;;;16.32;70.07;101159.03;4951754;28;20031;-78
2022/10/14 02:50:37;;;;;;;6.45;3.53;;;;;;;16.36;69.71;101173.16;4951493;28;20167;-75
2022/10/14 02:53:02;;;;;;;11.27;3.88;;;;;;;16.28;69.89;101155.75;4951366;28;20124;-78
2022/10/14 02:55:28;;;;;;;36.30;4.15;;;;;;;16.35;69.35;101156.00;4951319;28;20034;-77
2022/10/14 02:57:54;;;;;;;9.82;4.30;;;;;;;16.32;69.73;101154.44;4951411;28;20371;-76
2022/10/14 03:00:20;;;;;;;18.00;5.35;;;;;;;16.31;69.81;101155.44;4951268;28;20032;-77
2022/10/14 03:02:45;;;;;;;7.70;4.20;;;;;;;16.30;69.91;101161.88;4951550;28;20042;-77
2022/10/14 03:05:11;;;;;;;19.73;3.78;;;;;;;16.19;69.80;101151.22;4951363;28;20035;-76
2022/10/14 03:07:36;;;;;;;9.13;3.40;;;;;;;16.23;69.66;101157.19;4951022;28;20023;-78
2022/10/14 03:10:03;;;;;;;10.63;3.15;;;;;;;16.16;69.61;101156.94;4951517;28;20042;-76
2022/10/14 03:12:28;;;;;;;21.83;3.65;;;;;;;16.10;69.91;101156.66;4951639;28;20039;-79
2022/10/14 03:14:54;;;;;;;9.93;3.58;;;;;;;15.99;69.86;101144.09;4951432;28;20388;-77
2022/10/14 03:17:19;;;;;;;10.65;3.67;;;;;;;15.87;69.87;101115.44;4951562;28;20427;-77
2022/10/14 03:19:45;;;;;;;11.65;3.58;;;;;;;15.99;69.66;101149.53;4953508;28;20032;-80
2022/10/14 03:22:10;;;;;;;17.77;3.78;;;;;;;15.95;70.13;101150.00;4955152;28;20031;-80
2022/10/14 03:24:36;;;;;;;48.70;11.18;;;;;;;15.89;70.02;101143.31;4955026;28;20148;-78
2022/10/14 03:27:01;;;;;;;76.50;25.45;;;;;;;15.82;70.14;101135.88;4955887;28;20109;-77
2022/10/14 03:29:27;;;;;;;19.00;6.20;;;;;;;15.70;70.17;101111.66;4955760;28;20491;-78
2022/10/14 03:31:53;;;;;;;15.45;3.78;;;;;;;15.71;70.12;101113.38;4955799;28;20063;-77
2022/10/14 03:34:18;;;;;;;12.93;3.72;;;;;;;15.76;70.19;101124.63;4955266;28;20031;-77
2022/10/14 03:36:44;;;;;;;15.57;7.93;;;;;;;15.81;70.24;101137.72;4955150;28;20376;-78
2022/10/14 03:39:10;;;;;;;206.68;18.27;;;;;;;15.84;70.24;101137.44;4954878;28;20031;-77
2022/10/14 03:41:36;;;;;;;39.80;4.97;;;;;;;15.82;70.13;101139.44;4954971;28;20116;-78
2022/10/14 03:44:01;;;;;;;14.60;4.00;;;;;;;15.74;70.08;101128.50;4956047;28;20081;-79
2022/10/14 03:46:27;;;;;;;44.60;16.30;;;;;;;15.78;70.32;101140.72;4955871;28;20023;-78
2022/10/14 03:48:52;;;;;;;23.38;10.52;;;;;;;15.78;70.57;101138.03;4956129;28;20110;-76
2022/10/14 03:51:18;;;;;;;15.30;4.38;;;;;;;15.67;70.61;101117.38;4958435;28;20079;-80
2022/10/14 03:53:43;;;;;;;11.80;3.85;;;;;;;15.67;70.26;101113.78;4968667;29;20027;-77
2022/10/14 03:56:09;;;;;;;15.02;5.70;;;;;;;15.63;70.54;101104.22;4971422;28;20058;-78
2022/10/14 03:58:34;;;;;;;17.67;6.18;;;;;;;15.63;70.65;101104.22;4962024;28;20042;-78
2022/10/14 04:00:59;;;;;;;15.63;6.82;;;;;;;15.78;70.37;101121.75;4954610;28;20555;-78
2022/10/14 04:03:25;;;;;;;16.33;5.80;;;;;;;15.44;70.58;101060.88;4954705;28;20378;-79
2022/10/14 04:05:50;;;;;;;16.95;7.63;;;;;;;15.80;70.81;101117.06;4954118;28;20023;-77
2022/10/14 04:08:16;;;;;;;13.80;5.20;;;;;;;15.79;70.79;101126.19;4954357;28;20035;-77
2022/10/14 04:10:41;;;;;;;54.78;8.52;;;;;;;15.73;70.77;101127.63;4936145;29;20414;-80
2022/10/14 04:13:07;;;;;;;37.13;5.68;;;;;;;15.60;70.85;101093.66;4954287;28;20436;-79
2022/10/14 04:15:35;;;;;;;94.70;10.05;;;;;;;15.78;70.79;101119.91;4954182;28;20034;-78
2022/10/14 04:18:00;;;;;;;13.40;4.60;;;;;;;15.71;70.87;101113.38;4954023;28;20031;-79
2022/10/14 04:20:26;;;;;;;30.42;5.03;;;;;;;15.79;70.98;101126.19;4954221;28;20035;-76
2022/10/14 04:22:51;;;;;;;27.60;6.80;;;;;;;15.76;70.81;101123.75;4953716;28;20070;-77
2022/10/14 04:25:17;;;;;;;159.45;14.05;;;;;;;15.76;71.15;101115.63;4954114;28;20019;-78
2022/10/14 04:27:42;;;;;;;17.75;5.95;;;;;;;15.59;71.47;101081.13;4954209;28;20035;-77
2022/10/14 04:30:08;;;;;;;57.58;9.07;;;;;;;15.69;71.16;101100.94;4953502;28;20423;-77
2022/10/14 04:32:34;;;;;;;64.35;7.88;;;;;;;15.72;71.62;101104.22;4953737;28;20043;-77
2022/10/14 04:34:59;;;;;;;16.25;4.30;;;;;;;15.79;71.33;101118.03;4953740;28;20796;-78
2022/10/14 04:37:25;;;;;;;62.33;7.45;;;;;;;15.74;71.43;101112.22;4953983;28;20024;-78
2022/10/14 04:39:50;;;;;;;94.72;9.65;;;;;;;15.56;71.74;101081.44;4954009;28;20035;-79
2022/10/14 04:42:15;;;;;;;194.15;15.23;;;;;;;15.72;72.01;101103.34;4953938;29;20415;-79
2022/10/14 04:44:41;;;;;;;29.60;5.15;;;;;;;15.68;71.60;101085.69;4953792;28;20031;-78
2022/10/14 04:47:06;;;;;;;57.40;7.03;;;;;;;15.87;71.34;101118.16;4953765;28;20042;-79
2022/10/14 04:49:32;;;;;;;102.35;9.93;;;;;;;15.79;71.46;101109.91;4952714;29;20043;-79
2022/10/14 04:51:57;;;;;;;33.45;4.85;;;;;;;15.77;71.14;101101.06;4953703;28;20082;-79
2022/10/14 04:54:23;;;;;;;89.57;8.88;;;;;;;15.90;71.42;101123.28;4953867;28;20023;-79
2022/10/14 04:56:48;;;;;;;21.45;5.40;;;;;;;15.94;70.93;101122.00;4953742;28;20106;-79
2022/10/14 04:59:14;;;;;;;12.70;6.15;;;;;;;15.83;71.48;101114.06;4953955;29;20475;-78
2022/10/14 05:01:39;;;;;;;17.25;5.85;;;;;;;15.76;71.47;101112.91;4954844;28;20406;-78
2022/10/14 05:04:05;;;;;;;12.73;5.28;;;;;;;15.84;71.73;101123.88;4955157;28;20081;-76
2022/10/14 05:06:32;;;;;;;163.65;12.68;;;;;;;15.82;72.27;101128.59;4955963;28;20035;-80
2022/10/14 05:08:57;;;;;;;28.77;7.35;;;;;;;15.73;72.88;101110.50;4969815;28;20027;-79
2022/10/14 05:11:23;;;;;;;13.75;6.40;;;;;;;15.84;73.22;101123.88;4969735;28;20030;-79
2022/10/14 05:13:48;;;;;;;20.08;6.88;;;;;;;15.86;73.48;101124.59;4963711;28;20066;-78
2022/10/14 05:16:14;;;;;;;17.13;6.22;;;;;;;16.00;73.93;101126.84;4953105;28;20415;-76
2022/10/14 05:18:39;;;;;;;36.13;8.10;;;;;;;16.03;74.07;101129.25;4952916;28;20463;-79
2022/10/14 05:21:05;;;;;;;30.95;8.95;;;;;;;16.04;74.66;101133.69;4952994;28;20035;-77
2022/10/14 05:23:30;;;;;;;26.48;9.07;;;;;;;16.16;74.74;101128.94;4952880;28;20034;-76
2022/10/14 05:25:56;;;;;;;20.27;7.78;;;;;;;15.93;75.00;101079.59;4952899;28;20035;-78
2022/10/14 05:28:21;;;;;;;28.83;9.57;;;;;;;16.26;75.30;101129.75;4952630;28;20499;-79
2022/10/14 05:30:46;;;;;;;28.08;9.38;;;;;;;16.29;74.93;101119.47;4952577;28;20109;-76
2022/10/14 05:33:12;;;;;;;20.15;7.88;;;;;;;16.45;74.88;101126.09;4952354;28;20031;-78
2022/10/14 05:35:38;;;;;;;17.85;8.00;;;;;;;16.36;74.77;101103.41;4952244;28;20082;-76
2022/10/14 05:38:03;;;;;;;31.52;8.65;;;;;;;16.59;74.42;101123.78;4952252;28;20031;-76
2022/10/14 05:40:29;;;;;;;65.50;11.85;;;;;;;16.78;74.25;101136.38;4950704;28;20034;-79
2022/10/14 05:42:55;;;;;;;89.43;13.52;;;;;;;16.87;74.00;101135.47;4950215;28;20066;-78
2022/10/14 05:45:21;;;;;;;107.28;12.35;;;;;;;16.94;73.68;101119.41;4951046;28;20039;-81
2022/10/14 05:47:47;;;;;;;37.90;10.13;;;;;;;17.14;73.10;101124.53;4942179;29;20039;-78
2022/10/14 05:50:13;;;;;;;30.65;11.30;;;;;;;17.26;72.71;101131.47;4926068;29;20059;-80
2022/10/14 05:52:39;;;;;;;48.33;11.82;;;;;;;17.32;71.94;101135.41;4944160;29;20062;-79
2022/10/14 05:55:06;;;;;;;26.20;8.25;;;;;;;17.25;72.13;101116.16;4940977;29;20059;-77
2022/10/14 05:57:32;;;;;;;62.83;9.35;;;;;;;17.41;71.64;101129.91;4932567;29;20028;-76
2022/10/14 05:59:59;;;;;;;31.27;8.52;;;;;;;17.50;71.47;101132.66;4950462;28;20070;-77
2022/10/14 06:02:24;;;;;;;29.75;9.77;;;;;;;17.62;70.90;101143.19;4943403;28;20027;-78
2022/10/14 06:04:50;;;;;;;54.83;11.27;;;;;;;17.55;71.13;101127.66;4943838;29;20035;-78
2022/10/14 06:07:15;;;;;;;242.32;24.92;;;;;;;17.73;71.10;101144.81;4948504;29;20470;-80
2022/10/14 06:09:41;;;;;;;20.27;9.57;;;;;;;17.73;70.68;101134.78;4951909;28;20040;-78
2022/10/14 06:12:07;;;;;;;24.70;9.30;;;;;;;17.93;70.24;101149.03;4945296;28;20178;-78
2022/10/14 06:14:32;;;;;;;28.35;9.60;;;;;;;18.03;69.87;101147.06;4943640;28;20441;-79
2022/10/14 06:16:58;;;;;;;25.75;8.60;;;;;;;18.16;69.55;101150.22;4940466;29;20026;-77
2022/10/14 06:19:23;;;;;;;78.18;12.52;;;;;;;18.23;68.97;101153.13;4951667;28;20062;-76
2022/10/14 06:21:49;;;;;;;63.85;10.90;;;;;;;18.10;68.98;101137.25;4952079;28;20026;-77
2022/10/14 06:24:14;;;;;;;25.13;10.50;;;;;;;18.01;68.80;101110.16;4964366;29;20027;-77
2022/10/14 06:26:40;;;;;;;27.95;9.82;;;;;;;18.22;68.16;101122.34;4964947;28;20417;-78
2022/10/14 06:29:05;;;;;;;137.23;18.92;;;;;;;18.32;68.21;101136.69;4963693;29;20060;-78
2022/10/14 06:31:31;;;;;;;27.10;10.43;;;;;;;18.29;67.75;101117.94;4951215;28;20047;-80
2022/10/14 06:33:56;;;;;;;28.55;9.30;;;;;;;18.46;67.62;101130.63;4952205;28;20028;-82
2022/10/14 06:36:22;;;;;;;61.45;10.35;;;;;;;18.65;67.26;101147.78;4953176;28;20126;-82
2022/10/14 06:38:47;;;;;;;41.88;10.30;;;;;;;18.53;67.19;101119.13;4946390;28;20573;-78
2022/10/14 06:41:12;;;;;;;26.20;8.57;;;;;;;18.79;66.21;101139.81;4948744;28;20094;-80
2022/10/14 06:43:38;;;;;;;26.88;9.63;;;;;;;18.73;66.09;101134.16;4951780;28;20028;-80
2022/10/14 06:46:04;;;;;;;44.10;9.13;;;;;;;18.79;65.18;101114.44;4945771;28;20074;-80
2022/10/14 06:48:29;;;;;;;30.60;8.77;;;;;;;18.80;65.47;101117.00;4946162;28;20035;-77
2022/10/14 06:50:59;;;;;;;27.80;8.25;;;;;;;19.03;65.09;101131.72;4935618;28;20103;-83
2022/10/14 06:53:25;;;;;;;53.33;8.65;;;;;;;18.98;65.13;101134.09;4948656;28;20031;-82
2022/10/14 06:56:05;;;;;;;22.70;8.13;;;;;;;18.94;65.33;101104.59;4948793;29;20045;-82
2022/10/14 06:58:31;;;;;;;77.30;13.23;;;;;;;19.10;65.10;101117.41;4950751;28;20029;-83
2022/10/14 07:01:05;;;;;;;22.83;6.22;;;;;;;19.26;64.30;101134.66;4950223;28;20039;-81
2022/10/14 07:03:32;;;;;;;78.32;10.23;;;;;;;19.24;64.27;101133.94;4950659;29;20474;-81
2022/10/14 07:06:02;;;;;;;33.35;8.88;;;;;;;19.23;63.95;101115.03;4946459;28;20032;-82
2022/10/14 07:08:27;;;;;;;18.40;6.72;;;;;;;19.36;63.61;101110.78;4943813;29;20546;-81
2022/10/14 07:10:53;;;;;;;20.30;7.32;;;;;;;19.25;63.35;101092.03;4944386;29;20028;-82
2022/10/14 07:13:18;;;;;;;25.95;6.82;;;;;;;19.36;63.18;101105.31;4944640;28;20038;-83
2022/10/14 07:15:47;;;;;;;27.15;7.28;;;;;;;19.51;63.10;101125.47;4950370;28;20779;-78
2022/10/14 07:18:13;;;;;;;51.33;9.77;;;;;;;19.37;63.09;101095.25;4949855;28;20040;-79
2022/10/14 07:20:38;;;;;;;41.95;8.10;;;;;;;19.67;62.84;101101.94;4950324;28;20031;-78
2022/10/14 07:23:04;;;;;;;14.13;6.38;;;;;;;19.82;61.93;101095.59;4950238;28;20030;-80
2022/10/14 07:25:29;;;;;;;31.98;7.18;;;;;;;19.90;61.58;101092.88;4951205;28;20097;-79
2022/10/14 07:27:55;;;;;;;72.85;9.80;;;;;;;19.86;61.24;101094.25;4951250;28;20340;-82
2022/10/14 07:30:20;;;;;;;44.35;8.20;;;;;;;19.83;61.81;101101.91;4952319;28;20042;-80
2022/10/14 07:32:46;;;;;;;289.45;23.13;;;;;;;19.76;62.17;101117.28;4952844;28;20059;-78
2022/10/14 07:35:11;;;;;;;638.13;47.35;;;;;;;19.69;61.94;101108.94;4952585;28;20039;-78
2022/10/14 07:37:37;;;;;;;49.05;7.78;;;;;;;19.59;62.45;101093.75;4956273;28;20027;-80
2022/10/14 07:40:03;;;;;;;87.40;8.38;;;;;;;19.62;62.23;101090.69;4966723;29;20058;-83
2022/10/14 07:42:29;;;;;;;186.68;13.07;;;;;;;19.52;61.88;101094.44;4968202;29;20395;-80
2022/10/14 07:44:56;;;;;;;46.03;7.97;;;;;;;19.73;61.78;101106.69;4959164;28;20023;-78
2022/10/14 07:47:21;;;;;;;25.85;7.05;;;;;;;19.77;60.79;101102.59;4950544;28;20542;-79
2022/10/14 07:49:47;;;;;;;107.38;10.35;;;;;;;19.85;60.46;101110.78;4950127;28;20107;-80
2022/10/14 07:52:14;;;;;;;43.95;7.63;;;;;;;19.94;60.67;101102.41;4950444;29;20027;-82
2022/10/14 07:54:40;;;;;;;30.33;7.95;;;;;;;19.93;61.06;101098.00;4950725;28;20064;-79
2022/10/14 07:57:05;;;;;;;61.90;8.00;;;;;;;19.68;60.70;101055.38;4948629;29;20540;-80
2022/10/14 07:59:31;;;;;;;37.72;8.73;;;;;;;19.95;60.35;101100.53;4950049;28;20118;-78
2022/10/14 08:01:56;;;;;;;24.15;6.82;;;;;;;19.93;60.50;101108.06;4950401;29;20073;-81
2022/10/14 08:04:23;;;;;;;46.42;6.82;;;;;;;20.05;60.32;101107.53;4950640;28;20028;-79
2022/10/14 08:06:49;;;;;;;140.32;13.15;;;;;;;19.77;60.18;101095.28;4953517;29;20976;-79
2022/10/14 08:09:17;;;;;;;86.75;10.27;;;;;;;19.77;59.91;101089.81;4953908;29;20035;-79
2022/10/14 08:11:43;;;;;;;32.38;7.45;;;;;;;19.82;59.90;101086.56;4951284;29;20047;-79
2022/10/14 08:14:08;;;;;;;28.98;7.18;;;;;;;19.92;59.62;101084.50;4953366;29;20035;-80
2022/10/14 08:16:35;;;;;;;40.83;7.05;;;;;;;19.93;57.86;101069.84;4954015;28;20110;-79
2022/10/14 08:19:06;;;;;;;88.63;10.98;;;;;;;20.03;56.52;101062.28;4953863;29;20074;-78
2022/10/14 08:21:31;;;;;;;128.10;10.05;;;;;;;20.22;55.90;101096.53;4954019;28;20038;-80
2022/10/14 08:23:57;;;;;;;179.77;13.43;;;;;;;20.10;56.10;101087.84;4934673;29;20423;-78
2022/10/14 08:26:29;;;;;;;31.88;6.75;;;;;;;20.26;56.02;101093.31;4954084;28;20570;-79
2022/10/14 08:28:55;;;;;;;96.28;12.38;;;;;;;20.35;55.55;101083.19;4954217;28;20031;-77
2022/10/14 08:31:21;;;;;;;45.08;9.65;;;;;;;20.20;55.79;101090.41;4954406;28;20046;-79
2022/10/14 08:33:47;;;;;;;483.67;33.13;;;;;;;20.16;55.78;101092.63;4954479;28;20110;-79
2022/10/14 08:36:12;;;;;;;77.22;8.27;;;;;;;20.15;56.34;101085.44;4954656;29;20809;-78
2022/10/14 08:38:38;;;;;;;90.10;10.90;;;;;;;20.15;56.35;101071.78;4954476;28;20035;-80
2022/10/14 08:41:15;;;;;;;64.03;8.20;;;;;;;20.29;56.53;101083.91;4954313;28;20415;-78
2022/10/14 08:44:18;;;;;;;35.53;6.78;;;;;;;20.25;56.47;101083.38;4954434;29;20031;-79
2022/10/14 08:46:51;;;;;;;52.25;6.47;;;;;;;20.28;57.02;101088.50;4956122;29;20020;-78
2022/10/14 08:49:31;;;;;;;145.38;14.43;;;;;;;20.47;56.69;101081.78;4955416;29;20123;-78
2022/10/14 08:52:12;;;;;;;119.15;8.90;;;;;;;20.38;56.33;101075.50;4955441;28;20027;-81
2022/10/14 08:54:49;;;;;;;61.95;9.27;;;;;;;20.48;56.05;101084.34;4973150;28;20027;-82
2022/10/14 08:57:25;;;;;;;62.28;7.35;;;;;;;20.67;55.63;101090.41;4971876;28;20365;-81
2022/10/14 08:59:51;;;;;;;48.92;6.20;;;;;;;20.78;55.36;101098.19;4965473;28;20027;-78
2022/10/14 09:02:35;;;;;;;33.30;5.97;;;;;;;21.00;54.46;101094.66;4954219;29;20111;-77
2022/10/14 09:05:02;;;;;;;71.00;7.32;;;;;;;20.74;54.93;101080.44;4954127;29;20090;-79
2022/10/14 09:07:30;;;;;;;44.50;6.57;;;;;;;20.86;54.66;101103.59;4952387;29;20500;-79
2022/10/14 09:10:06;;;;;;;31.80;5.05;;;;;;;20.92;53.63;101079.13;4953677;28;20498;-76
2022/10/14 09:12:35;;;;;;;31.13;5.50;;;;;;;21.05;53.09;101100.41;4938938;28;20511;-77
2022/10/14 09:15:07;;;;;;;36.88;5.45;;;;;;;20.85;53.30;101100.06;4932992;29;20039;-79
2022/10/14 09:17:49;;;;;;;192.00;14.93;;;;;;;20.85;53.84;101078.19;4932094;29;20043;-77
2022/10/14 09:20:21;;;;;;;213.03;16.57;;;;;;;20.81;54.25;101104.16;4933510;29;20047;-78
2022/10/14 09:23:00;;;;;;;213.57;13.00;;;;;;;20.93;53.49;101101.88;4944269;29;20030;-76
2022/10/14 09:25:29;;;;;;;31.30;5.63;;;;;;;20.92;53.58;101111.09;4951967;28;20047;-76
2022/10/14 09:27:54;;;;;;;40.08;6.45;;;;;;;20.91;53.27;101090.28;4941515;29;20082;-76
2022/10/14 09:30:20;;;;;;;74.93;5.88;;;;;;;20.87;52.90;101064.31;4950317;29;20043;-78
2022/10/14 09:32:49;;;;;;;35.10;5.20;;;;;;;21.13;52.79;101108.59;4951349;29;20082;-77
2022/10/14 09:35:33;;;;;;;88.78;8.95;;;;;;;21.02;52.73;101101.63;4951319;28;20034;-77
2022/10/14 09:37:59;;;;;;;134.77;9.35;;;;;;;20.57;53.08;101075.09;4951707;29;20179;-79
2022/10/14 09:40:32;;;;;;;28.15;4.68;;;;;;;20.80;53.48;101107.91;4952431;28;20130;-77
2022/10/14 09:43:07;;;;;;;33.50;6.75;;;;;;;20.89;53.62;101112.31;4952185;28;20054;-78
2022/10/14 09:45:47;;;;;;;126.93;9.20;;;;;;;20.97;53.06;101114.16;4932543;29;20082;-78
2022/10/14 09:48:26;;;;;;;354.08;22.83;;;;;;;20.95;53.09;101108.84;4932003;29;20112;-79
2022/10/14 09:50:55;;;;;;;79.72;7.05;;;;;;;20.89;53.18;101097.78;4931705;29;20044;-77
2022/10/14 09:53:29;;;;;;;27.17;5.40;;;;;;;21.15;53.62;101101.94;4932699;29;20054;-80
2022/10/14 09:56:00;;;;;;;32.17;5.13;;;;;;;21.11;52.90;101080.56;4933206;29;20066;-78
2022/10/14 09:58:45;;;;;;;61.45;7.70;;;;;;;21.45;52.39;101113.84;4931873;29;20495;-79
2022/10/14 10:01:20;;;;;;;56.40;6.97;;;;;;;21.51;51.60;101115.00;4933519;29;20441;-79
2022/10/14 10:03:47;;;;;;;60.97;6.93;;;;;;;21.45;51.79;101115.72;4939391;29;20055;-77
2022/10/14 10:06:20;;;;;;;37.53;5.40;;;;;;;21.44;51.83;101112.13;4952516;28;20163;-77
2022/10/14 10:08:51;;;;;;;60.55;6.45;;;;;;;21.57;51.09;101106.03;4960705;28;20058;-84
2022/10/14 10:11:28;;;;;;;137.18;11.45;;;;;;;21.57;50.89;101117.00;4973465;28;20031;-80
2022/10/14 10:13:54;;;;;;;38.88;6.72;;;;;;;21.48;50.44;101090.72;4972395;28;20035;-80
2022/10/14 10:16:23;;;;;;;79.50;7.55;;;;;;;21.25;51.26;101104.44;4952821;28;20081;-79
2022/10/14 10:18:50;;;;;;;91.32;8.02;;;;;;;21.14;51.74;101108.44;4950898;28;20051;-79
2022/10/14 10:21:29;;;;;;;538.63;36.38;;;;;;;20.91;52.04;101098.47;4950772;29;20042;-81
2022/10/14 10:24:00;;;;;;;27.15;5.53;;;;;;;20.90;52.44;101102.22;4951231;28;20031;-79
2022/10/14 10:26:31;;;;;;;300.45;33.55;;;;;;;20.94;51.75;101106.31;4950461;29;20411;-83
2022/10/14 10:28:57;;;;;;;53.08;8.45;;;;;;;20.75;51.04;101043.88;4950595;28;20039;-82
2022/10/14 10:31:25;;;;;;;386.88;29.48;;;;;;;21.12;50.59;101101.44;4952084;28;20500;-79
2022/10/14 10:34:07;;;;;;;51.65;7.15;;;;;;;21.01;50.99;101113.59;4950621;28;20034;-81
2022/10/14 10:36:50;;;;;;;234.43;17.90;;;;;;;21.07;50.79;101099.19;4951073;28;20130;-80
2022/10/14 10:39:37;;;;;;;43.75;5.22;;;;;;;21.29;49.79;101091.22;4950225;28;20527;-83
2022/10/14 10:42:14;;;;;;;54.83;6.22;;;;;;;21.39;48.96;101109.09;4950194;28;20562;-79
2022/10/14 10:44:46;;;;;;;35.80;5.35;;;;;;;20.95;49.92;101073.31;4951240;28;20059;-81
2022/10/14 10:47:26;;;;;;;58.15;6.90;;;;;;;20.97;49.63;101070.41;4948265;29;20062;-81
2022/10/14 10:50:25;;;;;;;85.82;8.30;;;;;;;20.81;49.68;101086.91;4952139;28;20175;-83
2022/10/14 10:52:58;;;;;;;29.17;4.32;;;;;;;20.95;49.08;101072.44;4950800;28;20034;-82
2022/10/14 10:55:53;;;;;;;84.50;7.40;;;;;;;21.14;49.24;101099.38;4942794;29;20041;-80
2022/10/14 10:58:33;;;;;;;238.85;14.90;;;;;;;21.02;49.11;101101.63;4950581;28;20054;-82
2022/10/14 11:01:30;;;;;;;86.80;8.10;;;;;;;21.01;48.41;101099.06;4932176;29;20046;-79
2022/10/14 11:04:30;;;;;;;108.50;7.88;;;;;;;21.13;47.97;101094.91;4891185;29;20561;-81
2022/10/14 11:12:51;;;;;;;93.10;9.82;;;;;;;21.07;48.70;101087.41;4893885;29;20408;-83
2022/10/14 11:15:40;;;;;;;89.95;7.32;;;;;;;21.07;48.60;101091.00;4894486;29;20040;-87
2022/10/14 11:18:19;;;;;;;469.45;30.40;;;;;;;20.73;49.72;101082.34;4897388;29;20028;-82
2022/10/14 11:21:11;;;;;;;105.47;7.95;;;;;;;20.80;49.41;101068.78;4894827;29;20127;-82
2022/10/14 11:23:41;;;;;;;110.22;8.50;;;;;;;20.65;49.79;101082.38;4900051;29;20033;-83
2022/10/14 11:26:30;;;;;;;45.72;4.82;;;;;;;20.60;50.30;101090.28;4913373;29;20048;-83
2022/10/14 11:29:28;;;;;;;36.22;4.88;;;;;;;20.73;50.38;101081.50;4910618;29;20085;-81
2022/10/14 11:32:29;;;;;;;33.25;4.53;;;;;;;20.82;49.99;101085.88;4891580;29;20152;-80
2022/10/14 11:35:00;;;;;;;64.55;5.88;;;;;;;20.58;50.15;101049.44;4821724;29;20050;-81